Time;durP1;ratioP1;P1;durP2;ratioP2;P2;SDS_P1;SDS_P2;PMS_P1;PMS_P2;Temp;Humidity;BMP_temperature;BMP_pressure;BME280_temperature;BME280_humidity;BME280_pressure;Samples;Min_cycle;Max_cycle;Signal;HPM_P1;HPM_P2
2023/11/14 00:02:13;;;;;;;14.67;4.63;;;;;;;10.90;86.19;99121.66;5010023;28;20215;-82
2023/11/14 00:04:40;;;;;;;13.90;4.27;;;;;;;10.92;86.15;99125.03;5015694;28;20196;-81
2023/11/14 00:07:07;;;;;;;19.77;4.03;;;;;;;10.93;86.31;99128.50;5017895;28;20216;-82
2023/11/14 00:09:34;;;;;;;21.70;6.30;;;;;;;10.94;86.39;99133.69;5013674;28;20240;-83
2023/11/14 00:12:00;;;;;;;18.20;4.63;;;;;;;10.94;86.54;99133.69;5007895;28;20209;-82
2023/11/14 00:14:27;;;;;;;18.83;4.60;;;;;;;10.94;86.60;99149.69;5006477;28;20210;-81
2023/11/14 00:16:55;;;;;;;16.17;4.40;;;;;;;10.98;86.52;99140.44;5007598;28;20254;-82
2023/11/14 00:19:22;;;;;;;19.73;4.80;;;;;;;10.93;86.56;99145.31;5007900;28;20216;-82
2023/11/14 00:21:48;;;;;;;21.40;5.23;;;;;;;10.98;86.47;99150.25;5008924;28;20211;-83
2023/11/14 00:24:15;;;;;;;17.93;4.10;;;;;;;10.98;86.56;99134.28;5004586;28;20217;-83
2023/11/14 00:26:42;;;;;;;18.47;4.53;;;;;;;10.96;86.32;99144.22;5009557;28;20310;-82
2023/11/14 00:29:08;;;;;;;24.67;4.40;;;;;;;10.96;86.29;99139.72;5012287;28;20226;-83
2023/11/14 00:31:35;;;;;;;11.80;4.70;;;;;;;10.94;86.52;99128.38;5020151;28;20217;-84
2023/11/14 00:34:03;;;;;;;20.90;5.70;;;;;;;10.93;86.58;99137.34;5014125;28;20234;-83
2023/11/14 00:36:30;;;;;;;15.03;4.17;;;;;;;10.93;86.68;99131.16;5009415;28;20207;-83
2023/11/14 00:38:59;;;;;;;14.17;3.57;;;;;;;10.91;86.74;99123.34;5011183;28;20200;-83
2023/11/14 00:41:26;;;;;;;12.27;3.80;;;;;;;10.90;87.02;99111.00;5010801;28;20198;-81
2023/11/14 00:43:53;;;;;;;13.23;3.87;;;;;;;10.88;87.17;99104.97;5010226;28;20227;-82
2023/11/14 00:46:19;;;;;;;14.57;5.13;;;;;;;10.88;87.73;99112.94;5011412;28;20587;-82
2023/11/14 00:48:52;;;;;;;20.17;4.40;;;;;;;10.91;87.38;99101.19;5007446;28;20731;-80
2023/11/14 00:51:20;;;;;;;16.57;5.40;;;;;;;10.95;87.43;99102.56;5012106;28;20212;-80
2023/11/14 00:53:49;;;;;;;16.20;4.10;;;;;;;10.94;87.25;99107.06;5011704;28;20231;-80
2023/11/14 00:56:18;;;;;;;16.43;4.77;;;;;;;11.00;87.37;99113.66;5009897;28;20251;-80
2023/11/14 00:58:46;;;;;;;13.63;4.53;;;;;;;11.00;87.36;99109.19;5010510;28;20232;-80
2023/11/14 01:01:12;;;;;;;16.77;4.37;;;;;;;11.01;87.17;99096.72;5012475;28;20615;-79
2023/11/14 01:03:39;;;;;;;17.30;5.47;;;;;;;11.01;87.32;99102.88;5009301;28;20347;-80
2023/11/14 01:06:05;;;;;;;16.97;4.73;;;;;;;11.04;86.95;99096.44;5005639;28;20205;-80
2023/11/14 01:08:33;;;;;;;11.00;3.97;;;;;;;11.00;87.09;99085.22;5010299;28;20222;-80
2023/11/14 01:11:00;;;;;;;21.63;4.97;;;;;;;11.04;86.99;99091.09;5005958;28;20217;-80
2023/11/14 01:13:26;;;;;;;14.23;4.40;;;;;;;11.03;86.87;99084.09;5007649;28;20226;-80
2023/11/14 01:15:53;;;;;;;16.53;4.30;;;;;;;11.07;86.38;99074.84;5012791;28;20212;-81
2023/11/14 01:18:19;;;;;;;16.10;3.40;;;;;;;11.06;86.33;99076.69;5011518;28;20236;-80
2023/11/14 01:20:46;;;;;;;15.13;3.80;;;;;;;11.09;86.16;99068.41;5010357;28;20223;-80
2023/11/14 01:23:13;;;;;;;14.33;3.30;;;;;;;11.11;85.88;99082.41;5010499;28;20234;-81
2023/11/14 01:25:41;;;;;;;13.90;3.77;;;;;;;11.09;86.26;99084.41;5005193;28;20218;-82
2023/11/14 01:28:08;;;;;;;15.10;3.50;;;;;;;11.10;85.79;99095.91;5014285;28;20602;-81
2023/11/14 01:30:34;;;;;;;14.53;3.50;;;;;;;11.17;85.48;99096.16;5014089;28;20225;-82
2023/11/14 01:33:01;;;;;;;13.60;3.40;;;;;;;11.17;85.40;99090.84;5011567;28;20225;-81
2023/11/14 01:35:27;;;;;;;14.97;3.10;;;;;;;11.13;85.76;99091.09;5008846;28;20209;-82
2023/11/14 01:37:54;;;;;;;14.40;4.10;;;;;;;11.16;85.22;99097.16;5016836;28;20209;-81
2023/11/14 01:40:20;;;;;;;18.60;4.00;;;;;;;11.16;85.25;99083.81;5014063;28;20209;-82
2023/11/14 01:42:48;;;;;;;14.47;3.93;;;;;;;11.20;85.25;99079.91;5009967;28;20260;-82
2023/11/14 01:45:15;;;;;;;14.67;3.60;;;;;;;11.20;85.28;99069.25;5014152;28;20201;-82
2023/11/14 01:47:45;;;;;;;14.50;3.03;;;;;;;11.25;84.92;99083.84;5016012;28;20690;-82
2023/11/14 01:50:13;;;;;;;17.63;3.93;;;;;;;11.28;84.42;99061.41;5014077;28;20215;-83
2023/11/14 01:52:40;;;;;;;16.33;4.37;;;;;;;11.30;84.81;99072.75;5009620;28;20225;-82
2023/11/14 01:55:07;;;;;;;18.67;3.43;;;;;;;11.30;84.83;99086.06;5015378;28;20209;-82
2023/11/14 01:57:34;;;;;;;14.83;4.20;;;;;;;11.30;84.70;99073.59;5018661;28;20204;-83
2023/11/14 02:00:02;;;;;;;15.33;3.47;;;;;;;11.33;84.43;99086.63;5012712;28;20210;-82
2023/11/14 02:02:29;;;;;;;14.77;4.03;;;;;;;11.33;84.24;99080.47;5011425;28;20893;-83
2023/11/14 02:04:58;;;;;;;13.70;4.37;;;;;;;11.34;84.17;99090.16;5014162;28;20584;-82
2023/11/14 02:07:24;;;;;;;13.47;3.57;;;;;;;11.36;83.59;99089.03;5005344;28;20672;-82
2023/11/14 02:09:51;;;;;;;14.27;3.63;;;;;;;11.39;83.81;99095.91;5017193;28;20321;-82
2023/11/14 02:12:19;;;;;;;13.47;4.37;;;;;;;11.42;84.62;99087.63;5020823;28;20234;-82
2023/11/14 02:14:46;;;;;;;16.33;3.77;;;;;;;11.39;85.35;99085.25;5014022;28;20198;-82
2023/11/14 02:17:16;;;;;;;12.43;3.90;;;;;;;11.36;86.00;99096.19;5008739;28;20291;-82
2023/11/14 02:19:43;;;;;;;12.87;3.13;;;;;;;11.37;86.54;99087.22;5013540;28;20217;-82
2023/11/14 02:22:10;;;;;;;14.93;3.87;;;;;;;11.36;86.99;99088.19;5009465;28;20284;-82
2023/11/14 02:24:44;;;;;;;9.80;3.60;;;;;;;11.32;87.74;99078.78;5014192;28;20205;-82
2023/11/14 02:27:12;;;;;;;15.80;3.80;;;;;;;11.27;87.00;99081.03;5012918;28;20213;-82
2023/11/14 02:29:39;;;;;;;16.50;4.47;;;;;;;11.23;86.53;99087.63;5017445;28;20219;-82
2023/11/14 02:32:06;;;;;;;11.90;3.50;;;;;;;11.24;85.61;99089.31;5014854;28;20281;-82
2023/11/14 02:34:34;;;;;;;13.60;3.90;;;;;;;11.25;84.78;99075.84;5012766;28;20217;-82
2023/11/14 02:37:00;;;;;;;20.60;3.97;;;;;;;11.23;84.53;99091.13;5015772;28;20205;-82
2023/11/14 02:39:28;;;;;;;13.83;3.43;;;;;;;11.24;84.53;99102.63;5011699;28;20206;-82
2023/11/14 02:41:55;;;;;;;15.50;3.50;;;;;;;11.25;84.01;99101.66;5016744;28;20216;-82
2023/11/14 02:44:23;;;;;;;14.97;3.80;;;;;;;11.21;83.81;99108.25;5017430;28;20217;-83
2023/11/14 02:46:49;;;;;;;17.50;4.90;;;;;;;11.24;83.95;99102.63;5004627;28;20199;-82
2023/11/14 02:49:34;;;;;;;22.80;5.93;;;;;;;11.25;83.89;99110.50;5017814;28;20228;-82
2023/11/14 02:52:01;;;;;;;25.43;5.57;;;;;;;11.22;85.03;99105.44;5017001;28;20203;-82
2023/11/14 02:54:27;;;;;;;17.20;4.83;;;;;;;11.22;86.45;99104.59;5014785;28;20214;-82
2023/11/14 02:56:54;;;;;;;13.40;3.60;;;;;;;11.26;87.36;99108.69;5019505;28;20381;-82
2023/11/14 02:59:21;;;;;;;16.23;3.93;;;;;;;11.26;87.81;99112.19;5018380;28;20203;-81
2023/11/14 03:01:50;;;;;;;17.90;4.13;;;;;;;11.22;87.42;99102.78;5019597;28;20209;-82
2023/11/14 03:04:17;;;;;;;13.90;3.83;;;;;;;11.22;87.41;99107.25;5002483;28;20687;-82
2023/11/14 03:06:43;;;;;;;21.57;5.23;;;;;;;11.18;86.79;99103.19;5011584;28;20579;-82
2023/11/14 03:09:10;;;;;;;15.17;4.07;;;;;;;11.13;86.60;99100.91;5008322;28;20255;-82
2023/11/14 03:11:36;;;;;;;16.40;4.37;;;;;;;11.17;85.97;99101.50;5015291;28;20228;-83
2023/11/14 03:14:03;;;;;;;12.07;3.70;;;;;;;11.17;85.69;99110.34;5010627;28;20869;-82
2023/11/14 03:16:30;;;;;;;18.33;4.10;;;;;;;11.19;86.01;99110.19;5010710;28;20301;-83
2023/11/14 03:18:58;;;;;;;15.60;4.00;;;;;;;11.19;86.20;99120.84;5007477;28;20204;-83
2023/11/14 03:21:25;;;;;;;14.93;4.00;;;;;;;11.16;86.45;99119.31;5008511;28;20289;-82
2023/11/14 03:23:51;;;;;;;24.93;5.20;;;;;;;11.21;86.41;99130.41;5013038;28;20226;-82
2023/11/14 03:26:19;;;;;;;14.80;3.50;;;;;;;11.21;86.05;99132.22;4971321;28;1069922;-82
2023/11/14 03:28:46;;;;;;;16.17;4.67;;;;;;;11.20;86.89;99125.22;5010857;28;20488;-82
2023/11/14 03:31:13;;;;;;;20.17;4.33;;;;;;;11.19;87.40;99120.84;5010439;28;20224;-83
2023/11/14 03:33:39;;;;;;;18.20;4.00;;;;;;;11.20;87.01;99111.88;5010631;28;20724;-82
2023/11/14 03:36:08;;;;;;;16.20;3.90;;;;;;;11.18;86.70;99119.16;5010384;28;20210;-82
2023/11/14 03:38:34;;;;;;;18.90;3.53;;;;;;;11.12;87.08;99112.56;5007763;28;20206;-82
2023/11/14 03:41:00;;;;;;;18.93;4.00;;;;;;;11.16;86.79;99131.78;5011802;28;20206;-83
2023/11/14 03:43:27;;;;;;;8.33;3.20;;;;;;;11.14;86.17;99131.91;5005964;28;20236;-82
2023/11/14 03:45:53;;;;;;;13.87;3.77;;;;;;;11.16;85.99;99110.47;5007510;28;20206;-82
2023/11/14 03:48:20;;;;;;;10.20;2.80;;;;;;;11.16;85.67;99126.47;5012308;28;20212;-82
2023/11/14 03:50:47;;;;;;;21.43;4.17;;;;;;;11.13;85.12;99120.41;5010604;28;20211;-83
2023/11/14 03:53:15;;;;;;;14.27;3.83;;;;;;;11.12;85.29;99128.53;5010335;28;20280;-82
2023/11/14 03:55:41;;;;;;;16.13;3.50;;;;;;;11.14;85.26;99135.44;5015398;28;20205;-82
2023/11/14 03:58:08;;;;;;;17.40;3.30;;;;;;;11.13;85.47;99132.91;5009939;28;20202;-82
2023/11/14 04:00:34;;;;;;;14.40;4.93;;;;;;;11.12;85.44;99128.53;5011095;28;20755;-83
2023/11/14 04:03:01;;;;;;;13.97;3.40;;;;;;;11.11;85.35;99138.34;5011215;28;20608;-83
2023/11/14 04:05:27;;;;;;;14.27;4.33;;;;;;;11.11;85.60;99137.53;5015986;28;20219;-82
2023/11/14 04:07:54;;;;;;;14.43;3.57;;;;;;;11.12;85.78;99150.72;5005798;28;20724;-83
2023/11/14 04:10:22;;;;;;;13.80;3.20;;;;;;;11.14;86.60;99163.91;5008879;28;20224;-82
2023/11/14 04:12:48;;;;;;;18.23;4.10;;;;;;;11.12;87.84;99163.19;5010737;28;20227;-83
2023/11/14 04:15:15;;;;;;;10.50;3.47;;;;;;;11.12;89.07;99156.03;5014800;28;20768;-82
2023/11/14 04:17:42;;;;;;;18.53;4.30;;;;;;;11.11;89.69;99157.00;5007177;28;20203;-82
2023/11/14 04:20:09;;;;;;;15.03;4.43;;;;;;;11.08;90.44;99159.13;5011579;28;20208;-82
2023/11/14 04:22:36;;;;;;;15.53;3.70;;;;;;;11.09;91.35;99168.81;5007783;28;20230;-82
2023/11/14 04:25:02;;;;;;;14.37;3.93;;;;;;;11.07;91.73;99162.78;5011138;28;20685;-83
2023/11/14 04:27:30;;;;;;;16.43;4.20;;;;;;;11.03;91.54;99164.88;5014964;28;20201;-82
2023/11/14 04:29:57;;;;;;;16.87;3.57;;;;;;;11.02;90.99;99151.69;5015621;28;20233;-83
2023/11/14 04:32:23;;;;;;;11.40;3.30;;;;;;;11.00;90.97;99169.63;5007717;28;20227;-82
2023/11/14 04:34:50;;;;;;;10.27;3.60;;;;;;;11.00;91.14;99166.94;5005687;28;20207;-82
2023/11/14 04:37:16;;;;;;;14.50;3.40;;;;;;;10.98;90.68;99159.09;5011701;28;20213;-83
2023/11/14 04:39:42;;;;;;;13.63;4.00;;;;;;;10.99;90.98;99158.13;5015228;28;20217;-83
2023/11/14 04:42:11;;;;;;;12.50;4.83;;;;;;;11.01;91.23;99158.81;5011717;28;20232;-83
2023/11/14 04:44:38;;;;;;;14.33;3.47;;;;;;;11.02;90.57;99146.34;5005819;28;20285;-84
2023/11/14 04:47:05;;;;;;;11.70;3.37;;;;;;;11.00;90.65;99154.47;5015208;28;20208;-83
2023/11/14 04:49:32;;;;;;;17.30;4.03;;;;;;;11.00;90.06;99149.16;5005993;28;20227;-82
2023/11/14 04:51:58;;;;;;;13.47;3.80;;;;;;;11.01;89.68;99156.16;5011052;28;20561;-83
2023/11/14 04:54:25;;;;;;;13.80;3.83;;;;;;;11.01;89.41;99160.66;5013046;28;20296;-83
2023/11/14 04:56:51;;;;;;;15.77;4.40;;;;;;;11.04;89.33;99166.56;5006762;28;20206;-83
2023/11/14 04:59:18;;;;;;;15.37;3.60;;;;;;;11.04;89.87;99163.88;5005901;28;20214;-83
2023/11/14 05:01:47;;;;;;;18.30;4.23;;;;;;;11.05;89.70;99167.38;5010810;28;20240;-82
2023/11/14 05:04:13;;;;;;;15.70;3.67;;;;;;;11.04;90.17;99153.22;5012640;28;20204;-83
2023/11/14 05:06:40;;;;;;;13.20;3.10;;;;;;;11.11;90.09;99156.16;5009573;28;20204;-83
2023/11/14 05:09:07;;;;;;;14.90;3.70;;;;;;;11.12;89.58;99172.03;5004368;28;20889;-83
2023/11/14 05:11:37;;;;;;;13.60;3.10;;;;;;;11.12;89.65;99155.19;5009989;28;20328;-83
2023/11/14 05:14:05;;;;;;;12.90;3.87;;;;;;;11.11;89.95;99162.34;5006150;28;20227;-82
2023/11/14 05:16:38;;;;;;;15.17;3.87;;;;;;;11.12;90.64;99156.03;5004196;28;20206;-83
2023/11/14 05:19:07;;;;;;;15.13;4.00;;;;;;;11.13;91.50;99164.88;5013858;28;20659;-83
2023/11/14 05:21:34;;;;;;;17.20;4.17;;;;;;;11.11;92.54;99169.50;5007057;28;20293;-82
2023/11/14 05:24:00;;;;;;;12.73;4.40;;;;;;;11.10;92.78;99167.84;5010789;28;20226;-82
2023/11/14 05:26:27;;;;;;;14.30;3.83;;;;;;;11.06;93.53;99169.94;5006659;28;20215;-82
2023/11/14 05:28:53;;;;;;;16.43;3.63;;;;;;;11.08;94.34;99161.78;5011018;28;20606;-83
2023/11/14 05:31:19;;;;;;;16.27;4.47;;;;;;;11.02;94.27;99157.84;5003388;28;21944;-83
2023/11/14 05:33:46;;;;;;;15.13;4.00;;;;;;;11.00;94.82;99172.28;5013871;28;20614;-83
2023/11/14 05:36:15;;;;;;;13.37;4.20;;;;;;;10.98;94.97;99159.09;5012360;28;20213;-82
2023/11/14 05:38:41;;;;;;;18.37;4.60;;;;;;;10.99;95.49;99147.47;5006713;28;20657;-83
2023/11/14 05:41:08;;;;;;;20.83;4.97;;;;;;;10.92;95.79;99141.00;5002288;28;20206;-82
2023/11/14 05:43:34;;;;;;;13.07;4.87;;;;;;;10.92;96.30;99146.34;5005050;28;20588;-82
2023/11/14 05:46:01;;;;;;;20.50;4.97;;;;;;;10.89;96.57;99135.94;5015292;28;20227;-83
2023/11/14 05:48:28;;;;;;;17.60;4.87;;;;;;;10.89;96.24;99133.28;5004958;28;20701;-82
2023/11/14 05:50:55;;;;;;;14.03;4.27;;;;;;;10.87;95.80;99123.75;5010828;28;20334;-84
2023/11/14 05:53:23;;;;;;;13.33;3.33;;;;;;;10.84;95.30;99132.84;5011895;28;20311;-82
2023/11/14 05:55:51;;;;;;;14.43;3.83;;;;;;;10.84;94.89;99132.84;5015287;28;20258;-81
2023/11/14 05:58:18;;;;;;;15.87;4.37;;;;;;;10.87;94.18;99124.59;5004386;28;20207;-81
2023/11/14 06:00:44;;;;;;;11.10;3.33;;;;;;;10.87;93.55;99129.91;5005197;28;20225;-82
2023/11/14 06:03:12;;;;;;;13.23;3.40;;;;;;;10.87;93.90;99132.56;5002845;28;20228;-81
2023/11/14 06:05:39;;;;;;;17.23;4.40;;;;;;;10.87;93.30;99137.06;5012119;28;20648;-83
2023/11/14 06:08:05;;;;;;;19.77;4.57;;;;;;;10.89;92.59;99137.78;5004825;28;21395;-83
2023/11/14 06:10:33;;;;;;;12.70;3.70;;;;;;;10.88;92.48;99150.25;5005483;28;20222;-82
2023/11/14 06:13:00;;;;;;;11.83;4.73;;;;;;;10.89;91.69;99141.28;5008851;28;20243;-83
2023/11/14 06:15:27;;;;;;;14.43;4.03;;;;;;;10.91;91.53;99138.47;5005104;28;20201;-82
2023/11/14 06:17:54;;;;;;;13.00;4.27;;;;;;;10.93;91.14;99128.50;5001070;28;20811;-82
2023/11/14 06:20:22;;;;;;;12.97;3.60;;;;;;;10.93;90.83;99140.00;5010124;28;20201;-83
2023/11/14 06:22:49;;;;;;;10.50;3.90;;;;;;;10.95;90.54;99146.03;5007736;28;20350;-83
2023/11/14 06:25:18;;;;;;;14.00;3.10;;;;;;;10.97;90.33;99149.41;5010719;28;20264;-83
2023/11/14 06:27:45;;;;;;;17.60;3.73;;;;;;;10.96;90.22;99153.06;5017739;28;20252;-83
2023/11/14 06:30:12;;;;;;;16.10;5.30;;;;;;;10.96;90.07;99150.38;5005487;28;20317;-83
2023/11/14 06:32:39;;;;;;;15.90;4.93;;;;;;;10.96;90.04;99160.19;5013688;28;20232;-82
2023/11/14 06:35:06;;;;;;;11.33;3.30;;;;;;;10.98;89.75;99163.56;5016026;28;20211;-83
2023/11/14 06:37:35;;;;;;;15.13;4.27;;;;;;;10.99;89.41;99163.44;5015754;28;20201;-83
2023/11/14 06:40:01;;;;;;;12.10;4.20;;;;;;;10.97;89.91;99170.72;5011234;28;20201;-83
2023/11/14 06:42:28;;;;;;;13.27;3.47;;;;;;;10.99;89.55;99182.09;5009888;28;21987;-83
2023/11/14 06:44:56;;;;;;;15.37;3.70;;;;;;;11.03;89.50;99190.66;5012902;28;20220;-83
2023/11/14 06:47:22;;;;;;;12.77;4.13;;;;;;;11.04;89.68;99208.34;5009796;28;20216;-83
2023/11/14 06:49:49;;;;;;;12.60;3.40;;;;;;;11.05;89.16;99194.88;5018602;28;20238;-83
2023/11/14 06:52:15;;;;;;;15.00;3.33;;;;;;;11.07;89.09;99202.75;5015677;28;20220;-82
2023/11/14 06:54:42;;;;;;;14.60;4.40;;;;;;;11.05;89.27;99215.34;5011775;28;20239;-83
2023/11/14 06:57:09;;;;;;;13.60;3.77;;;;;;;11.06;89.49;99201.91;5012253;28;20209;-82
2023/11/14 06:59:35;;;;;;;19.37;4.40;;;;;;;11.06;90.03;99204.56;5014368;28;20203;-83
2023/11/14 07:02:05;;;;;;;11.60;3.70;;;;;;;11.05;90.13;99215.34;5017334;28;20209;-83
2023/11/14 07:04:32;;;;;;;14.40;4.17;;;;;;;11.05;90.54;99202.88;5009453;28;20245;-83
2023/11/14 07:06:59;;;;;;;12.17;3.70;;;;;;;11.09;90.78;99212.28;5011765;28;20209;-83
2023/11/14 07:09:25;;;;;;;10.30;2.90;;;;;;;11.07;90.90;99216.06;5011893;28;20228;-83
2023/11/14 07:11:54;;;;;;;12.90;3.87;;;;;;;11.09;91.00;99228.28;5006024;28;20591;-83
2023/11/14 07:14:22;;;;;;;12.00;3.43;;;;;;;11.10;91.49;99229.13;5009138;28;20226;-83
2023/11/14 07:16:49;;;;;;;7.57;2.90;;;;;;;11.11;91.38;99226.28;5012703;28;20208;-83
2023/11/14 07:19:17;;;;;;;10.30;3.43;;;;;;;11.11;91.67;99241.44;5002524;28;20218;-83
2023/11/14 07:21:46;;;;;;;15.07;3.50;;;;;;;11.12;91.80;99243.13;5010483;28;20206;-82
2023/11/14 07:24:12;;;;;;;11.57;3.17;;;;;;;11.14;91.97;99254.50;5008008;28;20774;-82
2023/11/14 07:26:39;;;;;;;13.17;3.50;;;;;;;11.11;91.85;99236.09;5012103;28;20280;-83
2023/11/14 07:29:06;;;;;;;12.20;3.77;;;;;;;11.12;91.93;99249.28;5008136;28;20215;-83
2023/11/14 07:31:32;;;;;;;11.53;3.20;;;;;;;11.11;92.32;99249.41;5013962;28;20589;-83
2023/11/14 07:33:59;;;;;;;13.40;4.10;;;;;;;11.12;92.23;99243.13;5018057;28;20264;-84
2023/11/14 07:36:29;;;;;;;14.17;3.93;;;;;;;11.12;92.57;99243.13;5014298;28;20298;-83
2023/11/14 07:38:56;;;;;;;13.30;3.17;;;;;;;11.09;92.95;99249.59;5012305;28;20684;-83
2023/11/14 07:41:22;;;;;;;14.13;4.57;;;;;;;11.13;92.93;99255.47;5023298;28;20203;-83
2023/11/14 07:43:49;;;;;;;12.47;3.70;;;;;;;11.10;92.85;99269.94;5018605;28;20592;-83
2023/11/14 07:46:16;;;;;;;14.40;3.87;;;;;;;11.10;92.46;99261.09;5015076;28;20221;-82
2023/11/14 07:48:44;;;;;;;17.27;5.57;;;;;;;11.10;93.00;99264.59;5015253;28;20210;-83
2023/11/14 07:51:10;;;;;;;15.33;4.23;;;;;;;11.08;92.90;99258.56;5011572;28;20226;-84
2023/11/14 07:53:38;;;;;;;14.43;4.50;;;;;;;11.12;92.42;99270.59;5012074;28;20244;-83
2023/11/14 07:56:05;;;;;;;20.13;4.50;;;;;;;11.13;92.91;99266.13;5012639;28;20202;-82
2023/11/14 07:58:32;;;;;;;16.93;3.73;;;;;;;11.16;92.20;99284.50;5008594;28;20207;-83
2023/11/14 08:00:58;;;;;;;15.43;4.17;;;;;;;11.16;92.13;99275.69;5014266;28;20652;-83
2023/11/14 08:03:25;;;;;;;16.30;4.30;;;;;;;11.14;92.12;99267.81;5005360;28;20238;-83
2023/11/14 08:05:51;;;;;;;18.60;4.63;;;;;;;11.20;91.97;99269.09;5015596;28;20212;-82
2023/11/14 08:08:18;;;;;;;12.00;3.83;;;;;;;11.24;91.88;99278.53;5006644;28;20651;-82
2023/11/14 08:10:46;;;;;;;17.67;3.77;;;;;;;11.28;91.53;99282.63;5014212;28;20278;-83
2023/11/14 08:13:13;;;;;;;12.50;3.23;;;;;;;11.32;90.51;99286.69;5012268;28;20219;-83
2023/11/14 08:15:39;;;;;;;17.07;3.83;;;;;;;11.30;90.63;99284.16;5015559;28;20213;-83
2023/11/14 08:18:06;;;;;;;12.67;4.03;;;;;;;11.34;90.54;99287.38;5006933;28;20213;-83
2023/11/14 08:20:32;;;;;;;13.53;3.53;;;;;;;11.39;90.34;99299.34;5008321;28;20202;-83
2023/11/14 08:23:00;;;;;;;14.87;3.73;;;;;;;11.40;89.71;99279.69;5015246;28;20226;-83
2023/11/14 08:25:27;;;;;;;10.30;4.03;;;;;;;11.45;89.97;99287.31;5007445;28;20203;-83
2023/11/14 08:27:55;;;;;;;9.97;4.07;;;;;;;11.45;89.49;99274.81;5012770;28;20547;-82
2023/11/14 08:30:21;;;;;;;16.77;4.83;;;;;;;11.46;89.23;99278.31;5013706;28;20275;-83
2023/11/14 08:32:48;;;;;;;18.40;4.37;;;;;;;11.46;89.54;99295.13;5009721;28;20232;-82
2023/11/14 08:35:15;;;;;;;17.70;4.30;;;;;;;11.48;89.48;99282.53;5011024;28;20623;-83
2023/11/14 08:37:43;;;;;;;13.13;3.73;;;;;;;11.52;89.20;99285.75;5016213;28;20214;-82
2023/11/14 08:40:12;;;;;;;13.17;4.90;;;;;;;11.54;88.99;99291.81;5007412;28;20569;-82
2023/11/14 08:42:38;;;;;;;15.37;4.00;;;;;;;11.58;88.20;99303.03;5003435;28;20239;-83
2023/11/14 08:45:07;;;;;;;22.57;8.33;;;;;;;11.61;87.88;99292.13;5006874;28;20211;-82
2023/11/14 08:47:34;;;;;;;15.10;4.50;;;;;;;11.64;87.52;99302.50;5005137;28;20228;-83
2023/11/14 08:50:00;;;;;;;19.47;4.60;;;;;;;11.65;87.49;99309.50;5010153;28;20229;-83
2023/11/14 08:52:27;;;;;;;15.47;5.03;;;;;;;11.69;86.70;99311.75;5015063;28;20257;-82
2023/11/14 08:54:53;;;;;;;14.27;3.80;;;;;;;11.70;86.36;99313.47;5011648;28;20570;-82
2023/11/14 08:57:20;;;;;;;15.90;4.30;;;;;;;11.69;87.04;99311.75;5009283;28;20202;-82
2023/11/14 08:59:47;;;;;;;14.67;4.07;;;;;;;11.69;86.62;99311.75;5010305;28;20219;-82
2023/11/14 09:02:14;;;;;;;15.90;4.13;;;;;;;11.72;86.85;99308.84;5014685;28;20229;-83
2023/11/14 09:04:41;;;;;;;13.53;4.00;;;;;;;11.75;86.82;99321.06;5012629;28;20297;-82
2023/11/14 09:07:08;;;;;;;13.80;4.60;;;;;;;11.78;86.17;99327.00;5016040;28;20632;-82
2023/11/14 09:09:35;;;;;;;13.57;3.50;;;;;;;11.83;86.66;99315.91;5006760;28;20312;-82
2023/11/14 09:12:01;;;;;;;12.77;3.87;;;;;;;11.78;87.12;99316.34;5009444;28;20231;-82
2023/11/14 09:14:27;;;;;;;13.07;3.90;;;;;;;11.77;87.64;99322.66;5014098;28;20216;-83
2023/11/14 09:16:54;;;;;;;10.70;3.70;;;;;;;11.79;88.95;99333.19;5002862;28;20220;-83
2023/11/14 09:19:22;;;;;;;14.27;4.50;;;;;;;11.79;88.50;99334.03;5013268;28;20205;-83
2023/11/14 09:21:49;;;;;;;18.53;4.80;;;;;;;11.79;88.73;99331.34;5009758;28;20259;-83
2023/11/14 09:24:15;;;;;;;14.13;4.80;;;;;;;11.76;88.48;99336.97;5010449;28;20895;-82
2023/11/14 09:26:42;;;;;;;16.80;4.53;;;;;;;11.75;88.47;99332.56;4999502;28;20228;-83
2023/11/14 09:29:09;;;;;;;12.33;4.50;;;;;;;11.73;88.89;99331.00;5008937;28;20209;-83
2023/11/14 09:31:35;;;;;;;20.17;5.23;;;;;;;11.73;88.52;99339.84;5013018;28;20228;-83
2023/11/14 09:34:02;;;;;;;28.53;7.53;;;;;;;11.72;88.16;99337.31;5009993;28;20226;-82
2023/11/14 09:36:30;;;;;;;21.53;7.23;;;;;;;11.70;88.66;99339.28;5005176;28;20677;-82
2023/11/14 09:38:56;;;;;;;14.23;4.77;;;;;;;11.71;89.37;99344.47;5012204;28;20213;-82
2023/11/14 09:41:22;;;;;;;22.50;5.50;;;;;;;11.71;88.96;99344.47;5005193;28;20206;-82
2023/11/14 09:43:49;;;;;;;18.10;5.20;;;;;;;11.73;89.58;99345.19;5006839;28;20621;-82
2023/11/14 09:46:16;;;;;;;15.27;4.43;;;;;;;11.76;89.65;99349.44;5006727;28;20207;-82
2023/11/14 09:48:43;;;;;;;19.50;5.03;;;;;;;11.74;89.64;99354.88;5012016;28;20299;-83
2023/11/14 09:51:13;;;;;;;15.57;4.67;;;;;;;11.75;89.51;99358.41;5009601;28;20257;-82
2023/11/14 09:53:44;;;;;;;16.53;3.80;;;;;;;11.78;89.93;99353.69;5002551;28;20607;-83
2023/11/14 09:56:11;;;;;;;12.30;5.00;;;;;;;11.81;90.24;99360.56;5009510;28;20213;-83
2023/11/14 09:58:37;;;;;;;11.43;3.93;;;;;;;11.79;90.44;99359.84;5010413;28;20206;-83
2023/11/14 10:01:04;;;;;;;14.20;4.37;;;;;;;11.78;91.76;99356.34;5009697;28;20206;-83
2023/11/14 10:03:31;;;;;;;16.20;4.97;;;;;;;11.81;92.47;99356.06;5019667;28;20238;-83
2023/11/14 10:05:58;;;;;;;14.47;4.37;;;;;;;11.79;92.56;99357.19;5011665;28;20211;-82
2023/11/14 10:08:25;;;;;;;15.60;5.63;;;;;;;11.75;92.97;99361.06;5012893;28;20211;-82
2023/11/14 10:11:04;;;;;;;14.87;4.60;;;;;;;11.72;93.52;99350.66;5014454;28;20227;-82
2023/11/14 10:13:31;;;;;;;16.87;4.20;;;;;;;11.71;93.34;99352.47;5009453;28;20236;-83
2023/11/14 10:16:12;;;;;;;10.80;4.83;;;;;;;11.69;93.16;99343.78;5014931;28;20276;-83
2023/11/14 10:18:39;;;;;;;14.77;4.00;;;;;;;11.72;93.08;99356.00;5011275;28;20206;-83
2023/11/14 10:21:05;;;;;;;12.93;3.70;;;;;;;11.71;92.43;99352.47;5007724;28;20200;-82
2023/11/14 10:23:33;;;;;;;15.53;4.10;;;;;;;11.71;91.52;99352.47;5012635;28;20235;-82
2023/11/14 10:26:08;;;;;;;14.63;3.90;;;;;;;11.76;90.01;99357.44;5007531;28;20211;-82
2023/11/14 10:28:35;;;;;;;15.67;3.57;;;;;;;11.78;90.31;99351.00;5008849;28;20289;-82
2023/11/14 10:31:02;;;;;;;21.27;5.37;;;;;;;11.81;89.97;99353.41;5011469;28;20589;-82
2023/11/14 10:33:40;;;;;;;16.57;4.23;;;;;;;11.83;89.07;99346.09;5010838;28;20233;-82
2023/11/14 10:36:09;;;;;;;17.33;4.63;;;;;;;11.85;88.28;99353.94;5015468;28;20210;-82
2023/11/14 10:38:36;;;;;;;15.10;4.10;;;;;;;11.88;88.77;99353.69;5010349;28;20209;-83
2023/11/14 10:41:03;;;;;;;16.63;4.60;;;;;;;11.91;88.02;99339.22;5013394;28;20211;-83
2023/11/14 10:43:32;;;;;;;17.27;4.40;;;;;;;11.92;88.16;99330.25;5008291;28;20269;-82
2023/11/14 10:46:01;;;;;;;20.13;5.53;;;;;;;11.94;87.34;99346.97;5004609;28;20825;-83
2023/11/14 10:48:27;;;;;;;18.77;4.67;;;;;;;11.98;87.56;99348.38;5014628;28;20206;-82
2023/11/14 10:50:56;;;;;;;12.03;3.80;;;;;;;11.99;87.47;99350.06;5011002;28;20225;-83
2023/11/14 10:53:23;;;;;;;15.97;4.47;;;;;;;11.98;87.82;99338.56;5009786;28;20237;-83
2023/11/14 10:55:50;;;;;;;14.40;4.50;;;;;;;12.00;87.71;99341.91;5008107;28;20225;-83
2023/11/14 10:58:18;;;;;;;15.27;4.00;;;;;;;12.03;87.84;99338.97;5009843;28;20587;-83
2023/11/14 11:00:47;;;;;;;10.93;3.80;;;;;;;12.07;87.80;99342.22;5011211;28;20727;-83
2023/11/14 11:03:15;;;;;;;10.33;4.33;;;;;;;12.09;87.94;99335.75;5005388;28;20291;-83
2023/11/14 11:05:41;;;;;;;14.07;3.90;;;;;;;12.13;86.70;99336.31;5010088;28;20200;-82
2023/11/14 11:08:08;;;;;;;14.70;3.87;;;;;;;12.14;87.27;99330.84;5011950;28;20297;-83
2023/11/14 11:10:37;;;;;;;20.70;5.63;;;;;;;12.20;86.73;99333.91;5010392;28;20847;-82
2023/11/14 11:13:08;;;;;;;12.43;3.53;;;;;;;12.23;86.26;99329.16;5012461;28;20235;-83
2023/11/14 11:15:43;;;;;;;17.87;4.43;;;;;;;12.23;85.42;99342.50;5008278;28;20637;-82
2023/11/14 11:18:12;;;;;;;15.70;4.43;;;;;;;12.23;85.96;99347.84;5014254;28;20209;-82
2023/11/14 11:20:38;;;;;;;18.00;4.13;;;;;;;12.27;85.14;99354.59;5002438;28;20213;-82
2023/11/14 11:23:08;;;;;;;15.67;4.50;;;;;;;12.27;85.20;99348.41;5008009;28;20695;-82
2023/11/14 11:25:35;;;;;;;12.33;3.90;;;;;;;12.29;86.86;99355.31;5006126;28;20214;-82